createdAt,value
2023-04-01T00:00:24.328Z,7.5477
2023-04-01T00:01:25.159Z,7.5521
2023-04-01T00:02:25.999Z,7.5454
2023-04-01T00:03:27.284Z,7.5458
2023-04-01T00:04:29.328Z,7.5523
2023-04-01T00:05:30.159Z,7.5433
2023-04-01T00:06:31.436Z,7.5437
2023-04-01T00:07:32.239Z,7.5434
2023-04-01T00:08:33.060Z,7.5655
2023-04-01T00:09:33.883Z,7.5505
2023-04-01T00:10:34.715Z,7.5465
2023-04-01T00:11:35.618Z,7.5375
2023-04-01T00:12:36.468Z,7.5326
2023-04-01T00:13:37.340Z,7.5265
2023-04-01T00:14:38.165Z,7.5248
2023-04-01T00:15:38.969Z,7.5256
2023-04-01T00:16:39.853Z,7.5305
2023-04-01T00:17:40.801Z,7.5222
2023-04-01T00:18:41.617Z,7.5084
2023-04-01T00:19:42.567Z,7.5108
2023-04-01T00:20:44.357Z,7.5327
2023-04-01T00:21:45.169Z,7.5288
2023-04-01T00:22:45.960Z,7.5489
2023-04-01T00:23:46.808Z,7.5738
2023-04-01T00:24:47.609Z,7.5671
2023-04-01T00:25:48.421Z,7.5497
2023-04-01T00:26:49.292Z,7.5358
2023-04-01T00:27:50.119Z,7.5212
2023-04-01T00:28:50.931Z,7.5287
2023-04-01T00:29:51.776Z,7.5332
2023-04-01T00:30:52.605Z,7.5436
2023-04-01T00:31:53.448Z,7.5346
2023-04-01T00:32:54.340Z,7.5294
2023-04-01T00:33:55.300Z,7.5208
2023-04-01T00:34:56.194Z,7.5012
2023-04-01T00:35:57.079Z,7.4981
2023-04-01T00:36:57.944Z,7.4998
2023-04-01T00:37:58.801Z,7.5043
2023-04-01T00:38:59.644Z,7.5011
2023-04-01T00:40:00.497Z,7.5309
2023-04-01T00:41:01.308Z,7.5117
2023-04-01T00:42:02.200Z,7.5402
2023-04-01T00:43:03.122Z,7.5362
2023-04-01T00:44:03.927Z,7.5367
2023-04-01T00:45:04.696Z,7.5501
2023-04-01T00:46:05.540Z,7.5736
2023-04-01T00:47:06.433Z,7.5897
2023-04-01T00:48:07.436Z,7.5710
2023-04-01T00:49:08.445Z,7.5815
2023-04-01T00:50:09.351Z,7.5861
2023-04-01T00:51:10.274Z,7.5701
2023-04-01T00:52:11.107Z,7.5583
2023-04-01T00:53:11.948Z,7.5377
2023-04-01T00:54:12.881Z,7.5491
2023-04-01T00:55:13.701Z,7.5559
2023-04-01T00:56:14.487Z,7.5535
2023-04-01T00:57:15.372Z,7.5465
2023-04-01T00:58:16.378Z,7.5319
2023-04-01T00:59:17.175Z,7.5251
2023-04-01T01:00:18.031Z,7.5134
2023-04-01T01:01:18.898Z,7.5047
2023-04-01T01:02:19.868Z,7.4945
2023-04-01T01:03:20.696Z,7.4884
2023-04-01T01:04:21.612Z,7.4644
2023-04-01T01:05:22.405Z,7.4438
2023-04-01T01:06:23.607Z,7.4326
2023-04-01T01:07:24.497Z,7.4507
2023-04-01T01:08:25.364Z,7.4252
2023-04-01T01:09:26.158Z,7.3844
2023-04-01T01:10:26.962Z,7.3612
2023-04-01T01:11:27.994Z,7.3238
2023-04-01T01:12:28.138Z,7.2976
2023-04-01T01:13:28.935Z,7.2555
2023-04-01T01:14:29.745Z,7.2549
2023-04-01T01:15:30.776Z,7.2210
2023-04-01T01:16:32.103Z,7.1968
2023-04-01T01:17:32.998Z,7.1747
2023-04-01T01:18:33.946Z,7.1515
2023-04-01T01:19:34.886Z,7.1669
2023-04-01T01:20:35.700Z,7.1499
2023-04-01T01:21:36.517Z,7.1472
2023-04-01T01:22:37.456Z,7.1669
2023-04-01T01:23:38.310Z,7.1074
2023-04-01T01:24:39.204Z,7.0592
2023-04-01T01:25:40.071Z,7.0707
2023-04-01T01:26:40.910Z,7.0785
2023-04-01T01:27:41.780Z,7.0444
2023-04-01T01:28:42.614Z,7.0493
2023-04-01T01:29:43.462Z,7.0573
2023-04-01T01:30:44.329Z,7.0428
2023-04-01T01:31:45.168Z,7.0424
2023-04-01T01:32:46.024Z,7.0777
2023-04-01T01:33:46.876Z,7.0787
2023-04-01T01:34:47.747Z,7.0465
2023-04-01T01:35:48.594Z,7.0624
2023-04-01T01:36:49.464Z,7.1113
2023-04-01T01:37:50.357Z,7.1594
2023-04-01T01:38:51.178Z,7.1534
2023-04-01T01:39:52.028Z,7.2340
2023-04-01T01:40:52.900Z,7.2031
2023-04-01T01:41:53.695Z,7.1444
2023-04-01T01:42:54.593Z,7.1392
2023-04-01T01:43:55.549Z,7.1492
2023-04-01T01:44:56.380Z,7.1684
2023-04-01T01:45:57.210Z,7.1635
2023-04-01T01:46:57.990Z,7.1539
2023-04-01T01:47:59.080Z,7.1342
2023-04-01T01:48:59.859Z,7.1771
2023-04-01T01:50:00.650Z,7.2190
2023-04-01T01:51:01.417Z,7.2018
2023-04-01T01:52:02.269Z,7.1953
2023-04-01T01:53:03.224Z,7.2015
2023-04-01T01:54:03.978Z,7.2483
2023-04-01T01:55:04.805Z,7.2590
2023-04-01T01:56:05.612Z,7.2395
2023-04-01T01:57:06.481Z,7.2171
2023-04-01T01:58:07.340Z,7.2051
2023-04-01T01:59:08.196Z,7.2520
2023-04-01T02:00:08.974Z,7.2464
2023-04-01T02:01:09.863Z,7.2669
2023-04-01T02:02:10.634Z,7.2677
2023-04-01T02:03:11.475Z,7.2514
2023-04-01T02:04:12.362Z,7.2438
2023-04-01T02:05:13.271Z,7.2416
2023-04-01T02:06:14.078Z,7.2544
2023-04-01T02:07:14.843Z,7.2637
2023-04-01T02:08:15.727Z,7.2596
2023-04-01T02:09:16.595Z,7.2606
2023-04-01T02:10:17.511Z,7.2589
2023-04-01T02:11:18.294Z,7.2500
2023-04-01T02:12:19.107Z,7.2603
2023-04-01T02:13:19.968Z,7.2760
2023-04-01T02:14:20.816Z,7.2776
2023-04-01T02:15:21.605Z,7.2663
2023-04-01T02:16:22.421Z,7.2713
2023-04-01T02:17:23.357Z,7.2499
2023-04-01T02:18:24.220Z,7.2481
2023-04-01T02:19:25.033Z,7.2216
2023-04-01T02:20:25.866Z,7.2341
2023-04-01T02:21:26.737Z,7.2329
2023-04-01T02:22:27.570Z,7.2281
2023-04-01T02:23:28.640Z,7.2065
2023-04-01T02:24:29.504Z,7.1961
2023-04-01T02:25:30.413Z,7.1695
2023-04-01T02:26:31.656Z,7.1828
2023-04-01T02:27:32.505Z,7.2003
2023-04-01T02:28:33.326Z,7.2126
2023-04-01T02:29:34.133Z,7.1683
2023-04-01T02:30:34.970Z,7.1346
2023-04-01T02:31:35.882Z,7.1672
2023-04-01T02:32:36.732Z,7.2136
2023-04-01T02:33:37.582Z,7.2067
2023-04-01T02:34:38.394Z,7.3031
2023-04-01T02:35:39.239Z,7.3655
2023-04-01T02:36:40.264Z,7.3204
2023-04-01T02:37:41.103Z,7.3051
2023-04-01T02:38:41.961Z,7.3251
2023-04-01T02:39:42.725Z,7.2819
2023-04-01T02:40:43.640Z,7.2519
2023-04-01T02:41:44.430Z,7.2487
2023-04-01T02:42:45.307Z,7.2637
2023-04-01T02:43:46.246Z,7.2930
2023-04-01T02:44:47.082Z,7.2734
2023-04-01T02:45:47.900Z,7.2546
2023-04-01T02:46:48.749Z,7.2337
2023-04-01T02:47:49.634Z,7.2048
2023-04-01T02:48:50.478Z,7.1761
2023-04-01T02:49:51.414Z,7.1194
2023-04-01T02:50:52.217Z,7.0646
2023-04-01T02:51:53.065Z,7.0351
2023-04-01T02:52:53.953Z,6.9913
2023-04-01T02:53:54.804Z,6.9680
2023-04-01T02:54:55.629Z,6.9712
2023-04-01T02:55:56.466Z,7.0230
2023-04-01T02:56:57.413Z,7.0643
2023-04-01T02:57:58.496Z,7.0151
2023-04-01T02:58:59.338Z,6.9777
2023-04-01T03:00:00.214Z,6.9534
2023-04-01T03:01:01.121Z,6.9405
2023-04-01T03:02:01.973Z,6.9464
2023-04-01T03:03:03.150Z,6.9763
2023-04-01T03:04:04.792Z,6.9773
2023-04-01T03:05:05.641Z,6.9930
2023-04-01T03:06:06.520Z,7.0320
2023-04-01T03:07:07.428Z,7.0032
2023-04-01T03:08:08.321Z,7.0075
2023-04-01T03:09:09.205Z,7.0507
2023-04-01T03:10:10.015Z,7.0921
2023-04-01T03:11:10.838Z,7.1256
2023-04-01T03:12:11.724Z,7.1482
2023-04-01T03:13:12.562Z,7.1549
2023-04-01T03:14:13.448Z,7.1260
2023-04-01T03:15:14.318Z,7.0785
2023-04-01T03:16:15.218Z,7.0279
2023-04-01T03:17:16.178Z,7.0679
2023-04-01T03:18:17.099Z,7.0487
2023-04-01T03:19:17.914Z,6.9940
2023-04-01T03:20:18.803Z,6.9727
2023-04-01T03:21:19.619Z,6.9733
2023-04-01T03:22:20.470Z,7.0247
2023-04-01T03:23:21.398Z,7.0490
2023-04-01T03:24:22.228Z,7.0235
2023-04-01T03:25:23.110Z,7.0301
2023-04-01T03:26:23.997Z,6.9870
2023-04-01T03:27:24.802Z,6.9704
2023-04-01T03:28:25.651Z,7.0638
2023-04-01T03:29:26.502Z,7.0212
2023-04-01T03:30:27.346Z,7.0331
2023-04-01T03:31:28.455Z,6.9936
2023-04-01T03:32:29.744Z,6.9892
2023-04-01T03:33:30.589Z,7.0193
2023-04-01T03:34:31.385Z,6.9851
2023-04-01T03:35:32.643Z,6.9601
2023-04-01T03:36:34.154Z,6.9219
2023-04-01T03:37:35.060Z,6.8601
2023-04-01T03:38:35.932Z,6.8206
2023-04-01T03:39:36.772Z,6.8427
2023-04-01T03:40:37.675Z,6.8423
2023-04-01T03:41:38.481Z,6.8170
2023-04-01T03:42:39.354Z,6.7985
2023-04-01T03:43:40.192Z,6.7832
2023-04-01T03:44:41.009Z,6.7761
2023-04-01T03:45:41.890Z,6.8752
2023-04-01T03:46:42.722Z,6.9020
2023-04-01T03:47:43.975Z,6.8972
2023-04-01T03:48:45.038Z,6.9396
2023-04-01T03:49:45.955Z,7.0086
2023-04-01T03:50:46.797Z,7.0297
2023-04-01T03:51:47.587Z,7.0389
2023-04-01T03:52:48.386Z,7.0669
2023-04-01T03:53:49.214Z,7.0457
2023-04-01T03:54:50.093Z,7.0714
2023-04-01T03:55:50.970Z,7.1621
2023-04-01T03:56:51.883Z,7.1573
2023-04-01T03:57:52.946Z,7.1304
2023-04-01T03:58:53.786Z,7.1267
2023-04-01T03:59:54.603Z,7.1404
2023-04-01T04:00:55.414Z,7.1410
2023-04-01T04:01:56.236Z,7.1662
2023-04-01T04:02:57.446Z,7.1722
2023-04-01T04:03:58.575Z,7.1591
2023-04-01T04:04:59.369Z,7.1533
2023-04-01T04:06:00.212Z,7.1476
2023-04-01T04:07:01.035Z,7.1101
2023-04-01T04:08:01.943Z,7.0924
2023-04-01T04:09:02.780Z,7.1031
2023-04-01T04:10:03.657Z,7.1367
2023-04-01T04:11:04.498Z,7.1374
2023-04-01T04:12:05.361Z,7.1229
2023-04-01T04:13:06.214Z,7.1272
2023-04-01T04:14:07.110Z,7.1118
2023-04-01T04:15:08.055Z,7.1167
2023-04-01T04:16:08.947Z,7.1125
2023-04-01T04:17:09.771Z,7.1192
2023-04-01T04:18:10.585Z,7.1141
2023-04-01T04:19:11.458Z,7.1299
2023-04-01T04:20:12.684Z,7.1734
2023-04-01T04:21:13.619Z,7.1620
2023-04-01T04:22:14.436Z,7.1637
2023-04-01T04:23:15.282Z,7.1491
2023-04-01T04:24:16.154Z,7.1467
2023-04-01T04:25:17.073Z,7.1975
2023-04-01T04:26:17.894Z,7.1889
2023-04-01T04:27:18.754Z,7.1860
2023-04-01T04:28:19.578Z,7.1837
2023-04-01T04:29:20.486Z,7.2277
2023-04-01T04:30:21.375Z,7.2360
2023-04-01T04:31:22.201Z,7.2437
2023-04-01T04:32:23.034Z,7.2360
2023-04-01T04:33:23.885Z,7.2176
2023-04-01T04:34:24.803Z,7.2040
2023-04-01T04:35:25.649Z,7.1694
2023-04-01T04:36:26.471Z,7.0644
2023-04-01T04:37:27.301Z,6.9534
2023-04-01T04:38:28.105Z,6.8535
2023-04-01T04:39:28.953Z,6.8127
2023-04-01T04:40:29.829Z,6.7598
2023-04-01T04:41:30.717Z,6.6901
2023-04-01T04:42:31.609Z,6.7037
2023-04-01T04:43:32.657Z,6.7201
2023-04-01T04:44:33.582Z,6.7343
2023-04-01T04:45:34.607Z,6.7280
2023-04-01T04:46:36.346Z,6.7515
2023-04-01T04:47:37.253Z,6.7335
2023-04-01T04:48:38.084Z,6.7136
2023-04-01T04:49:38.986Z,6.6976
2023-04-01T04:50:39.896Z,6.6788
2023-04-01T04:51:40.735Z,6.6581
2023-04-01T04:52:41.546Z,6.6448
2023-04-01T04:53:42.414Z,6.6478
2023-04-01T04:54:43.271Z,6.6295
2023-04-01T04:55:44.082Z,6.5929
2023-04-01T04:56:44.946Z,6.5753
2023-04-01T04:57:45.820Z,6.5766
2023-04-01T04:58:46.698Z,6.5595
2023-04-01T04:59:47.548Z,6.5284
2023-04-01T05:00:48.399Z,6.5042
2023-04-01T05:01:49.362Z,6.4707
2023-04-01T05:02:50.352Z,6.4324
2023-04-01T05:03:51.341Z,6.4126
2023-04-01T05:04:52.273Z,6.3800
2023-04-01T05:05:53.173Z,6.3595
2023-04-01T05:06:54.056Z,6.3333
2023-04-01T05:07:54.986Z,6.3367
2023-04-01T05:08:55.831Z,6.3280
2023-04-01T05:09:56.700Z,6.3534
2023-04-01T05:10:57.646Z,6.3791
2023-04-01T05:11:58.434Z,6.3528
2023-04-01T05:12:59.293Z,6.3210
2023-04-01T05:14:00.155Z,6.3154
2023-04-01T05:15:00.988Z,6.3040
2023-04-01T05:16:01.753Z,6.3114
2023-04-01T05:17:02.666Z,6.3026
2023-04-01T05:18:03.586Z,6.2597
2023-04-01T05:19:04.506Z,6.2465
2023-04-01T05:20:05.386Z,6.2212
2023-04-01T05:21:06.263Z,6.2262
2023-04-01T05:22:07.066Z,6.2288
2023-04-01T05:23:08.079Z,6.2389
2023-04-01T05:24:08.916Z,6.2615
2023-04-01T05:25:09.779Z,6.2500
2023-04-01T05:26:10.606Z,6.2570
2023-04-01T05:27:11.439Z,6.2787
2023-04-01T05:28:12.301Z,6.2776
2023-04-01T05:29:13.194Z,6.2861
2023-04-01T05:30:14.083Z,6.2948
2023-04-01T05:31:14.993Z,6.3069
2023-04-01T05:32:15.903Z,6.2935
2023-04-01T05:33:16.728Z,6.2982
2023-04-01T05:34:17.605Z,6.3246
2023-04-01T05:35:18.456Z,6.3475
2023-04-01T05:36:19.412Z,6.3427
2023-04-01T05:37:20.234Z,6.3071
2023-04-01T05:38:21.095Z,6.2562
2023-04-01T05:39:21.988Z,6.2383
2023-04-01T05:40:22.844Z,6.2562
2023-04-01T05:41:23.811Z,6.2573
2023-04-01T05:42:24.685Z,6.2609
2023-04-01T05:43:25.562Z,6.2747
2023-04-01T05:44:26.422Z,6.2839
2023-04-01T05:45:27.268Z,6.2746
2023-04-01T05:46:28.172Z,6.2831
2023-04-01T05:47:29.144Z,6.3013
2023-04-01T05:48:30.114Z,6.3073
2023-04-01T05:49:30.969Z,6.3280
2023-04-01T05:50:31.830Z,6.3309
2023-04-01T05:51:32.700Z,6.3559
2023-04-01T05:52:33.550Z,6.3854
2023-04-01T05:53:34.371Z,6.4170
2023-04-01T05:54:35.243Z,6.4288
2023-04-01T05:55:36.153Z,6.4366
2023-04-01T05:56:37.059Z,6.4533
2023-04-01T05:57:38.251Z,6.4769
2023-04-01T05:58:39.091Z,6.5091
2023-04-01T05:59:39.969Z,6.5386
2023-04-01T06:00:40.839Z,6.5904
2023-04-01T06:01:41.678Z,6.5792
2023-04-01T06:02:42.584Z,6.5544
2023-04-01T06:03:43.810Z,6.5511
2023-04-01T06:04:45.632Z,6.5574
2023-04-01T06:05:46.887Z,6.5480
2023-04-01T06:06:47.760Z,6.5333
2023-04-01T06:07:48.608Z,6.5286
2023-04-01T06:08:49.387Z,6.5313
2023-04-01T06:09:50.288Z,6.5366
2023-04-01T06:10:51.133Z,6.5286
2023-04-01T06:11:52.002Z,6.5499
2023-04-01T06:12:52.854Z,6.6004
2023-04-01T06:13:53.714Z,6.6616
2023-04-01T06:14:54.563Z,6.7401
2023-04-01T06:15:55.428Z,6.7695
2023-04-01T06:16:56.199Z,6.8104
2023-04-01T06:17:57.061Z,6.8291
2023-04-01T06:18:57.851Z,6.8488
2023-04-01T06:19:58.740Z,6.8417
2023-04-01T06:20:59.572Z,6.8616
2023-04-01T06:22:00.705Z,6.8709
2023-04-01T06:23:01.601Z,6.9140
2023-04-01T06:24:02.464Z,6.9247
2023-04-01T06:25:03.428Z,6.9483
2023-04-01T06:26:04.286Z,6.9416
2023-04-01T06:27:05.117Z,6.9483
2023-04-01T06:28:07.732Z,6.9690
2023-04-01T06:29:07.857Z,7.0012
2023-04-01T06:30:08.776Z,6.9880
2023-04-01T06:31:09.674Z,7.0150
2023-04-01T06:32:10.959Z,7.0114
2023-04-01T06:33:12.400Z,7.0134
2023-04-01T06:34:13.309Z,7.0305
2023-04-01T06:35:14.194Z,7.0407
2023-04-01T06:36:15.042Z,7.0461
2023-04-01T06:37:15.869Z,7.0976
2023-04-01T06:38:16.681Z,7.1567
2023-04-01T06:39:17.581Z,7.1852
2023-04-01T06:40:18.422Z,7.2339
2023-04-01T06:41:19.266Z,7.3239
2023-04-01T06:42:20.184Z,7.3598
2023-04-01T06:43:21.110Z,7.3899
2023-04-01T06:44:21.882Z,7.4033
2023-04-01T06:45:22.846Z,7.4077
2023-04-01T06:46:23.743Z,7.4015
2023-04-01T06:47:24.970Z,7.3859
2023-04-01T06:48:25.841Z,7.3906
2023-04-01T06:49:26.732Z,7.3815
2023-04-01T06:50:27.716Z,7.3639
2023-04-01T06:51:28.661Z,7.3980
2023-04-01T06:52:29.478Z,7.4371
2023-04-01T06:53:30.309Z,7.4587
2023-04-01T06:54:31.166Z,7.5062
2023-04-01T06:55:32.165Z,7.5536
2023-04-01T06:56:33.279Z,7.6005
2023-04-01T06:57:34.233Z,7.6060
2023-04-01T06:58:35.036Z,7.6186
2023-04-01T06:59:35.847Z,7.6516
2023-04-01T07:00:35.916Z,7.6559
2023-04-01T07:01:37.549Z,7.6732
2023-04-01T07:02:38.626Z,7.7001
2023-04-01T07:03:39.621Z,7.7116
2023-04-01T07:04:40.787Z,7.6933
2023-04-01T07:05:41.796Z,7.6898
2023-04-01T07:06:42.672Z,7.6978
2023-04-01T07:07:43.565Z,7.6988
2023-04-01T07:08:44.458Z,7.7090
2023-04-01T07:09:45.308Z,7.7247
2023-04-01T07:10:46.215Z,7.7279
2023-04-01T07:11:47.061Z,7.7204
2023-04-01T07:12:47.826Z,7.7169
2023-04-01T07:13:48.675Z,7.7203
2023-04-01T07:14:49.502Z,7.7347
2023-04-01T07:15:50.372Z,7.7265
2023-04-01T07:16:51.253Z,7.7264
2023-04-01T07:17:52.133Z,7.7027
2023-04-01T07:18:53.060Z,7.6591
2023-04-01T07:19:53.899Z,7.6264
2023-04-01T07:20:54.700Z,7.5906
2023-04-01T07:21:55.580Z,7.5391
2023-04-01T07:22:56.475Z,7.4827
2023-04-01T07:23:57.284Z,7.4334
2023-04-01T07:24:58.160Z,7.4079
2023-04-01T07:25:59.020Z,7.3842
2023-04-01T07:26:59.918Z,7.3550
2023-04-01T07:28:00.742Z,7.2682
2023-04-01T07:29:01.561Z,7.2326
2023-04-01T07:30:02.379Z,7.2324
2023-04-01T07:31:03.218Z,7.1897
2023-04-01T07:32:04.123Z,7.1737
2023-04-01T07:33:05.007Z,7.1781
2023-04-01T07:34:05.874Z,7.1213
2023-04-01T07:35:06.706Z,7.0904
2023-04-01T07:36:07.556Z,7.0841
2023-04-01T07:37:08.407Z,7.0848
2023-04-01T07:38:09.210Z,7.0649
2023-04-01T07:39:10.049Z,7.0929
2023-04-01T07:40:10.961Z,7.1010
2023-04-01T07:41:11.867Z,7.0321
2023-04-01T07:42:12.658Z,7.0292
2023-04-01T07:43:13.469Z,7.0385
2023-04-01T07:44:14.465Z,7.0170
2023-04-01T07:45:15.243Z,7.0108
2023-04-01T07:46:16.330Z,7.0144
2023-04-01T07:47:17.247Z,7.0286
2023-04-01T07:48:18.164Z,7.0103
2023-04-01T07:49:19.030Z,7.0413
2023-04-01T07:50:19.887Z,7.0260
2023-04-01T07:51:20.664Z,7.0470
2023-04-01T07:52:21.482Z,7.0157
2023-04-01T07:53:22.297Z,7.0195
2023-04-01T07:54:23.112Z,7.0131
2023-04-01T07:55:23.954Z,6.9747
2023-04-01T07:56:24.799Z,6.9587
2023-04-01T07:57:25.705Z,6.9521
2023-04-01T07:58:26.732Z,6.9027
2023-04-01T07:59:27.524Z,6.9028
2023-04-01T08:00:29.341Z,6.8887
2023-04-01T08:01:30.178Z,6.8920
2023-04-01T08:02:31.183Z,6.8535
2023-04-01T08:03:32.376Z,6.8486
2023-04-01T08:04:33.507Z,6.8153
2023-04-01T08:05:34.833Z,6.7601
2023-04-01T08:06:36.644Z,6.7214
2023-04-01T08:07:37.497Z,6.7135
2023-04-01T08:08:38.305Z,6.6505
2023-04-01T08:09:39.169Z,6.6520
2023-04-01T08:10:39.954Z,6.6493
2023-04-01T08:11:43.524Z,6.6375
2023-04-01T08:12:42.564Z,6.6483
2023-04-01T08:13:43.359Z,6.6478
2023-04-01T08:14:44.195Z,6.6670
2023-04-01T08:15:45.068Z,6.6722
2023-04-01T08:16:45.981Z,6.6762
2023-04-01T08:17:46.813Z,6.7120
2023-04-01T08:18:47.703Z,6.7404
2023-04-01T08:19:48.495Z,6.7218
2023-04-01T08:20:49.374Z,6.7221
2023-04-01T08:21:50.207Z,6.7276
2023-04-01T08:22:51.070Z,6.7163
2023-04-01T08:23:51.905Z,6.7294
2023-04-01T08:24:52.751Z,6.7708
2023-04-01T08:25:53.602Z,6.7843
2023-04-01T08:26:54.462Z,6.7635
2023-04-01T08:27:55.345Z,6.7883
2023-04-01T08:28:56.192Z,6.7874
2023-04-01T08:29:57.100Z,6.8017
2023-04-01T08:30:57.974Z,6.7879
2023-04-01T08:31:58.958Z,6.7915
2023-04-01T08:32:59.937Z,6.8112
2023-04-01T08:34:00.846Z,6.8683
2023-04-01T08:35:01.827Z,6.8311
2023-04-01T08:36:02.758Z,6.8127
2023-04-01T08:37:03.691Z,6.7965
2023-04-01T08:38:04.550Z,6.7762
2023-04-01T08:39:05.346Z,6.7640
2023-04-01T08:40:06.294Z,6.7764
2023-04-01T08:41:07.254Z,6.7521
2023-04-01T08:42:08.154Z,6.7252
2023-04-01T08:43:09.163Z,6.7204
2023-04-01T08:44:09.991Z,6.7189
2023-04-01T08:45:12.016Z,6.7209
2023-04-01T08:46:11.044Z,6.7263
2023-04-01T08:47:11.974Z,6.7116
2023-04-01T08:48:12.901Z,6.7136
2023-04-01T08:49:13.887Z,6.7290
2023-04-01T08:50:14.765Z,6.7476
2023-04-01T08:51:15.638Z,6.7409
2023-04-01T08:52:16.483Z,6.7497
2023-04-01T08:53:17.279Z,6.7652
2023-04-01T08:54:18.224Z,6.7454
2023-04-01T08:55:19.110Z,6.7725
2023-04-01T08:56:19.930Z,6.7849
2023-04-01T08:57:20.859Z,6.7875
2023-04-01T08:58:21.761Z,6.7929
2023-04-01T08:59:22.602Z,6.7945
2023-04-01T09:00:23.431Z,6.7893
2023-04-01T09:01:24.362Z,6.7813
2023-04-01T09:02:25.276Z,6.7694
2023-04-01T09:03:26.430Z,6.7526
2023-04-01T09:04:27.679Z,6.7430
2023-04-01T09:05:28.554Z,6.7539
2023-04-01T09:06:29.478Z,6.7476
2023-04-01T09:07:30.341Z,6.7630
2023-04-01T09:08:31.180Z,6.7708
2023-04-01T09:09:32.029Z,6.7689
2023-04-01T09:10:32.896Z,6.7862
2023-04-01T09:11:33.834Z,6.7874
2023-04-01T09:12:34.681Z,6.7659
2023-04-01T09:13:35.605Z,6.7716
2023-04-01T09:14:36.398Z,6.7852
2023-04-01T09:15:37.478Z,6.8370
2023-04-01T09:16:38.609Z,6.8455
2023-04-01T09:17:39.522Z,6.8913
2023-04-01T09:18:40.526Z,6.9240
2023-04-01T09:19:41.412Z,6.9544
2023-04-01T09:20:42.232Z,6.9256
2023-04-01T09:21:43.063Z,6.9079
2023-04-01T09:22:43.922Z,6.9252
2023-04-01T09:23:44.786Z,6.9282
2023-04-01T09:24:45.695Z,6.9350
2023-04-01T09:25:46.485Z,6.9385
2023-04-01T09:26:47.397Z,6.9508
2023-04-01T09:27:48.445Z,6.9618
2023-04-01T09:28:50.262Z,6.9953
2023-04-01T09:29:51.170Z,7.0405
2023-04-01T09:30:52.014Z,7.0707
2023-04-01T09:31:53.068Z,7.0702
2023-04-01T09:32:54.212Z,7.1151
2023-04-01T09:33:55.125Z,7.0720
2023-04-01T09:34:56.066Z,7.0644
2023-04-01T09:35:57.001Z,7.0992
2023-04-01T09:36:57.858Z,7.1695
2023-04-01T09:37:58.704Z,7.1688
2023-04-01T09:38:59.558Z,7.2054
2023-04-01T09:40:00.401Z,7.2211
2023-04-01T09:41:01.289Z,7.2483
2023-04-01T09:42:02.169Z,7.2873
2023-04-01T09:43:03.069Z,7.2969
2023-04-01T09:44:03.921Z,7.2999
2023-04-01T09:45:04.855Z,7.3147
2023-04-01T09:46:05.699Z,7.3450
2023-04-01T09:47:06.606Z,7.3778
2023-04-01T09:48:07.530Z,7.3961
2023-04-01T09:49:08.510Z,7.4785
2023-04-01T09:50:09.400Z,7.5280
2023-04-01T09:51:10.202Z,7.5508
2023-04-01T09:52:11.032Z,7.6307
2023-04-01T09:53:11.873Z,7.6712
2023-04-01T09:54:12.746Z,7.7179
2023-04-01T09:55:13.784Z,7.7606
2023-04-01T09:56:14.624Z,7.7860
2023-04-01T09:57:15.458Z,7.8730
2023-04-01T09:58:16.339Z,7.9398
2023-04-01T09:59:17.145Z,7.9723
2023-04-01T10:00:18.034Z,7.9547
2023-04-01T10:01:19.942Z,7.9965
2023-04-01T10:02:20.866Z,8.0355
2023-04-01T10:03:21.653Z,8.0542
2023-04-01T10:04:22.485Z,8.1105
2023-04-01T10:05:23.405Z,8.1235
2023-04-01T10:06:24.148Z,8.1414
2023-04-01T10:07:24.977Z,8.1181
2023-04-01T10:08:25.747Z,8.1875
2023-04-01T10:09:26.606Z,8.2005
2023-04-01T10:10:27.496Z,8.1849
2023-04-01T10:11:28.395Z,8.1665
2023-04-01T10:12:29.290Z,8.1284
2023-04-01T10:13:30.132Z,8.1028
2023-04-01T10:14:30.969Z,8.0868
2023-04-01T10:15:31.947Z,8.0535
2023-04-01T10:16:33.587Z,8.0079
2023-04-01T10:17:34.410Z,7.9768
2023-04-01T10:18:35.300Z,7.9986
2023-04-01T10:19:36.242Z,7.9910
2023-04-01T10:20:37.075Z,7.9886
2023-04-01T10:21:37.858Z,8.0333
2023-04-01T10:22:38.685Z,8.0638
2023-04-01T10:23:39.464Z,8.0674
2023-04-01T10:24:40.354Z,8.1438
2023-04-01T10:25:41.262Z,8.2245
2023-04-01T10:26:42.085Z,8.2773
2023-04-01T10:27:43.292Z,8.3006
2023-04-01T10:28:44.082Z,8.2455
2023-04-01T10:29:44.901Z,8.1930
2023-04-01T10:30:45.725Z,8.1952
2023-04-01T10:31:46.690Z,8.2102
2023-04-01T10:32:47.613Z,8.2296
2023-04-01T10:33:48.445Z,8.2232
2023-04-01T10:34:49.239Z,8.2011
2023-04-01T10:35:50.118Z,8.2016
2023-04-01T10:36:50.994Z,8.2243
2023-04-01T10:37:51.833Z,8.2072
2023-04-01T10:38:52.643Z,8.2214
2023-04-01T10:39:53.434Z,8.2425
2023-04-01T10:40:54.233Z,8.2351
2023-04-01T10:41:55.004Z,8.2381
2023-04-01T10:42:55.850Z,8.2487
2023-04-01T10:43:56.734Z,8.2258
2023-04-01T10:44:57.536Z,8.2328
2023-04-01T10:45:59.405Z,8.2881
2023-04-01T10:47:00.235Z,8.2974
2023-04-01T10:48:01.015Z,8.3148
2023-04-01T10:49:01.821Z,8.3315
2023-04-01T10:50:02.639Z,8.3721
2023-04-01T10:51:03.437Z,8.3338
2023-04-01T10:52:04.285Z,8.3366
2023-04-01T10:53:07.162Z,8.4276
2023-04-01T10:54:06.194Z,8.4429
2023-04-01T10:55:06.979Z,8.4896
2023-04-01T10:56:07.799Z,8.4990
2023-04-01T10:57:08.606Z,8.5256
2023-04-01T10:58:09.425Z,8.5932
2023-04-01T10:59:10.244Z,8.7136
2023-04-01T11:00:11.058Z,8.7672
2023-04-01T11:01:11.857Z,8.7255
2023-04-01T11:02:12.707Z,8.7562
2023-04-01T11:03:14.126Z,8.7909
2023-04-01T11:04:15.298Z,8.6765
2023-04-01T11:05:16.908Z,8.7383
2023-04-01T11:06:17.300Z,8.7825
2023-04-01T11:07:18.173Z,8.7591
2023-04-01T11:08:18.972Z,8.7909
2023-04-01T11:09:19.882Z,8.7585
2023-04-01T11:10:20.718Z,8.7603
2023-04-01T11:11:21.533Z,8.7245
2023-04-01T11:12:22.344Z,8.7361
2023-04-01T11:13:23.156Z,8.7641
2023-04-01T11:14:24.113Z,8.8123
2023-04-01T11:15:24.959Z,8.8288
2023-04-01T11:16:25.782Z,8.8464
2023-04-01T11:17:26.675Z,8.8548
2023-04-01T11:18:27.578Z,8.9038
2023-04-01T11:19:28.495Z,8.8701
2023-04-01T11:20:29.287Z,8.9108
2023-04-01T11:21:30.163Z,8.8731
2023-04-01T11:22:31.015Z,8.8226
2023-04-01T11:23:31.811Z,8.7953
2023-04-01T11:24:32.658Z,8.8287
2023-04-01T11:25:33.754Z,8.8187
2023-04-01T11:26:35.356Z,8.8321
2023-04-01T11:27:37.499Z,8.7874
2023-04-01T11:28:38.331Z,8.6881
2023-04-01T11:29:40.545Z,8.6590
2023-04-01T11:30:40.677Z,8.6350
2023-04-01T11:31:41.565Z,8.5236
2023-04-01T11:32:42.682Z,8.4520
2023-04-01T11:33:43.558Z,8.4175
2023-04-01T11:34:44.375Z,8.4121
2023-04-01T11:35:45.188Z,8.3961
2023-04-01T11:36:46.063Z,8.3980
2023-04-01T11:37:46.853Z,8.4149
2023-04-01T11:38:47.646Z,8.4285
2023-04-01T11:39:48.514Z,8.4318
2023-04-01T11:40:49.422Z,8.4017
2023-04-01T11:41:50.294Z,8.4554
2023-04-01T11:42:51.168Z,8.4881
2023-04-01T11:43:52.013Z,8.5133
2023-04-01T11:44:52.864Z,8.5073
2023-04-01T11:45:53.734Z,8.5080
2023-04-01T11:46:54.869Z,8.4791
2023-04-01T11:47:55.783Z,8.4564
2023-04-01T11:48:56.559Z,8.4664
2023-04-01T11:49:57.399Z,8.4963
2023-04-01T11:50:58.225Z,8.4891
2023-04-01T11:51:59.167Z,8.4854
2023-04-01T11:53:00.004Z,8.4819
2023-04-01T11:54:00.933Z,8.5710
2023-04-01T11:55:01.780Z,8.6177
2023-04-01T11:56:02.721Z,8.6236
2023-04-01T11:57:03.580Z,8.7128
2023-04-01T11:58:04.455Z,8.7415
2023-04-01T11:59:05.281Z,8.8159
2023-04-01T12:00:06.004Z,8.8149
2023-04-01T12:01:06.867Z,8.8879
2023-04-01T12:02:07.772Z,8.8895
2023-04-01T12:03:08.684Z,8.9186
2023-04-01T12:04:09.823Z,8.9343
2023-04-01T12:05:11.423Z,8.9114
2023-04-01T12:06:12.252Z,8.9408
2023-04-01T12:07:13.094Z,9.0007
2023-04-01T12:08:13.878Z,9.0669
2023-04-01T12:09:14.682Z,9.2099
2023-04-01T12:10:15.482Z,9.3502
2023-04-01T12:11:16.455Z,9.4001
2023-04-01T12:12:17.313Z,9.3304
2023-04-01T12:13:18.154Z,9.3991
2023-04-01T12:14:18.908Z,9.5656
2023-04-01T12:15:19.707Z,9.6701
2023-04-01T12:16:20.585Z,9.7526
2023-04-01T12:17:21.365Z,9.4978
2023-04-01T12:18:22.212Z,9.4424
2023-04-01T12:19:22.982Z,9.4068
2023-04-01T12:20:23.778Z,9.2792
2023-04-01T12:21:24.552Z,9.3609
2023-04-01T12:22:25.280Z,9.3821
2023-04-01T12:23:26.114Z,9.3771
2023-04-01T12:24:26.848Z,9.3517
2023-04-01T12:25:27.661Z,9.3295
2023-04-01T12:26:28.391Z,9.2851
2023-04-01T12:27:29.235Z,9.2269
2023-04-01T12:28:30.045Z,9.0116
2023-04-01T12:29:30.872Z,8.9120
2023-04-01T12:30:31.669Z,8.6900
2023-04-01T12:31:32.560Z,8.5733
2023-04-01T12:32:33.512Z,8.5813
2023-04-01T12:33:36.022Z,8.7682
2023-04-01T12:34:35.067Z,8.9244
2023-04-01T12:35:36.135Z,9.0841
2023-04-01T12:36:37.696Z,9.0785
2023-04-01T12:37:38.584Z,9.2044
2023-04-01T12:38:39.426Z,9.3146
2023-04-01T12:39:40.228Z,9.3715